Time;durP1;ratioP1;P1;durP2;ratioP2;P2;SDS_P1;SDS_P2;PMS_P1;PMS_P2;Temp;Humidity;BMP_temperature;BMP_pressure;BME280_temperature;BME280_humidity;BME280_pressure;Samples;Min_cycle;Max_cycle;Signal;HPM_P1;HPM_P2
2022/07/13 00:02:10;;;;;;;5.93;3.22;;;20.10;99.90;;;;;;5094767;28;20248;-71
2022/07/13 00:04:35;;;;;;;6.65;3.45;;;20.10;99.90;;;;;;5095786;28;20665;-71
2022/07/13 00:07:01;;;;;;;7.22;3.45;;;20.00;99.90;;;;;;5094980;28;20637;-71
2022/07/13 00:09:27;;;;;;;5.10;3.40;;;20.00;99.90;;;;;;5094916;28;20232;-70
2022/07/13 00:11:53;;;;;;;6.50;3.47;;;19.90;99.90;;;;;;5094589;28;20178;-71
2022/07/13 00:14:18;;;;;;;4.85;3.33;;;19.80;99.90;;;;;;5094523;28;20642;-71
2022/07/13 00:16:45;;;;;;;4.88;3.10;;;19.90;99.90;;;;;;5094616;28;20173;-71
2022/07/13 00:19:11;;;;;;;8.18;3.08;;;19.90;99.90;;;;;;5092759;28;20231;-70
2022/07/13 00:21:37;;;;;;;5.90;3.30;;;19.90;99.90;;;;;;5094035;28;20642;-71
2022/07/13 00:24:03;;;;;;;8.05;3.38;;;19.90;99.90;;;;;;5094033;28;20179;-70
2022/07/13 00:26:28;;;;;;;4.30;3.22;;;19.90;99.90;;;;;;5094116;28;20642;-70
2022/07/13 00:28:54;;;;;;;8.73;3.53;;;19.80;99.90;;;;;;5094413;28;20196;-70
2022/07/13 00:31:20;;;;;;;4.80;3.20;;;19.80;99.90;;;;;;5093962;28;20181;-70
2022/07/13 00:33:46;;;;;;;6.00;3.38;;;19.80;99.90;;;;;;5094288;28;20229;-73
2022/07/13 00:36:11;;;;;;;14.95;4.03;;;19.80;99.90;;;;;;5093740;28;20252;-70
2022/07/13 00:38:37;;;;;;;6.00;3.65;;;19.80;99.90;;;;;;5094002;28;20169;-70
2022/07/13 00:41:06;;;;;;;6.88;3.75;;;19.70;99.90;;;;;;5093868;28;20657;-70
2022/07/13 00:43:32;;;;;;;8.32;3.80;;;19.70;99.90;;;;;;5094036;28;20183;-70
2022/07/13 00:45:58;;;;;;;5.90;3.40;;;19.70;99.90;;;;;;5093802;28;20601;-70
2022/07/13 00:48:25;;;;;;;4.97;3.10;;;19.70;99.90;;;;;;5092929;28;20295;-70
2022/07/13 00:50:51;;;;;;;4.05;3.28;;;19.70;99.90;;;;;;5092320;28;20563;-70
2022/07/13 00:53:18;;;;;;;6.78;3.50;;;19.70;99.90;;;;;;5093805;28;20169;-70
2022/07/13 00:55:48;;;;;;;6.00;3.20;;;19.70;99.90;;;;;;5094322;28;20564;-70
2022/07/13 00:58:13;;;;;;;6.20;3.40;;;19.70;99.90;;;;;;5093857;28;20161;-70
2022/07/13 01:00:39;;;;;;;4.70;3.28;;;19.70;99.90;;;;;;5093604;28;20197;-70
2022/07/13 01:03:05;;;;;;;7.05;3.10;;;19.70;99.90;;;;;;5093594;28;20173;-70
2022/07/13 01:05:31;;;;;;;4.45;3.08;;;19.70;99.90;;;;;;5095244;28;20540;-70
2022/07/13 01:07:57;;;;;;;5.22;3.00;;;19.70;99.90;;;;;;5097892;28;20626;-70
2022/07/13 01:10:23;;;;;;;3.92;2.78;;;19.70;99.90;;;;;;5097567;28;20268;-70
2022/07/13 01:12:49;;;;;;;4.72;3.10;;;19.60;99.90;;;;;;5097824;28;20575;-70
2022/07/13 01:15:15;;;;;;;5.32;3.42;;;19.60;99.90;;;;;;5096362;28;20173;-71
2022/07/13 01:17:41;;;;;;;7.18;3.83;;;19.50;99.90;;;;;;5097412;28;20216;-70
2022/07/13 01:20:09;;;;;;;4.18;3.60;;;19.40;99.90;;;;;;5097401;28;20201;-70
2022/07/13 01:22:53;;;;;;;5.80;3.90;;;19.30;99.90;;;;;;5097457;28;20169;-70
2022/07/13 01:25:19;;;;;;;6.97;4.10;;;19.30;99.90;;;;;;5097527;28;20157;-70
2022/07/13 01:27:47;;;;;;;6.88;3.85;;;19.30;99.90;;;;;;5096124;28;20180;-70
2022/07/13 01:30:14;;;;;;;7.90;4.13;;;19.20;99.90;;;;;;5097222;28;20201;-70
2022/07/13 01:32:47;;;;;;;6.97;4.05;;;19.20;99.90;;;;;;5097472;28;20176;-70
2022/07/13 01:35:15;;;;;;;6.35;4.05;;;19.10;99.90;;;;;;5097344;28;20162;-70
2022/07/13 01:37:42;;;;;;;7.75;4.43;;;19.10;99.90;;;;;;5095854;28;20181;-70
2022/07/13 01:40:09;;;;;;;5.22;3.60;;;19.00;99.90;;;;;;5096899;28;20253;-70
2022/07/13 01:42:46;;;;;;;8.30;3.80;;;18.90;99.90;;;;;;5097048;28;20238;-70
2022/07/13 01:45:14;;;;;;;7.15;3.67;;;18.80;99.90;;;;;;5096965;28;20180;-70
2022/07/13 01:47:45;;;;;;;7.05;3.75;;;18.70;99.90;;;;;;5096878;28;20177;-70
2022/07/13 01:50:13;;;;;;;4.85;3.60;;;18.60;99.90;;;;;;5096339;28;20220;-70
2022/07/13 01:52:39;;;;;;;8.80;3.38;;;18.60;99.90;;;;;;5095497;28;20169;-70
2022/07/13 01:55:07;;;;;;;7.68;3.78;;;18.50;99.90;;;;;;5096779;28;20634;-70
2022/07/13 01:57:33;;;;;;;7.13;3.92;;;18.40;99.90;;;;;;5096648;28;20192;-70
2022/07/13 02:00:00;;;;;;;5.05;3.92;;;18.30;99.90;;;;;;5096794;28;20228;-70
2022/07/13 02:02:26;;;;;;;7.20;4.22;;;18.30;99.90;;;;;;5096930;28;20177;-70
2022/07/13 02:04:54;;;;;;;5.70;4.18;;;18.20;99.90;;;;;;5095371;28;20177;-70
2022/07/13 02:07:20;;;;;;;8.60;4.07;;;18.20;99.90;;;;;;5096309;28;20180;-70
2022/07/13 02:09:46;;;;;;;8.05;4.60;;;18.20;99.90;;;;;;5096910;28;20681;-71
2022/07/13 02:12:12;;;;;;;6.68;3.97;;;18.20;99.90;;;;;;5096711;28;20173;-70
2022/07/13 02:14:37;;;;;;;7.72;3.88;;;18.20;99.90;;;;;;5096567;28;20169;-70
2022/07/13 02:17:04;;;;;;;6.68;4.30;;;18.20;99.90;;;;;;5094796;28;20633;-71
2022/07/13 02:19:29;;;;;;;7.68;4.35;;;18.20;99.90;;;;;;5094820;28;20204;-70
2022/07/13 02:21:55;;;;;;;4.95;3.42;;;18.20;99.90;;;;;;5095955;28;20176;-70
2022/07/13 02:24:21;;;;;;;6.97;4.53;;;18.20;99.90;;;;;;5096671;28;20185;-70
2022/07/13 02:26:47;;;;;;;5.15;3.90;;;18.20;99.90;;;;;;5096400;28;20535;-70
2022/07/13 02:29:12;;;;;;;7.55;4.40;;;18.20;99.90;;;;;;5095932;28;20284;-70
2022/07/13 02:31:38;;;;;;;5.20;4.18;;;18.20;99.90;;;;;;5095974;28;20517;-70
2022/07/13 02:34:04;;;;;;;7.05;3.72;;;18.20;99.90;;;;;;5096025;28;20182;-70
2022/07/13 02:36:29;;;;;;;6.63;4.38;;;18.20;99.90;;;;;;5094385;28;20169;-70
2022/07/13 02:38:55;;;;;;;6.20;4.40;;;18.20;99.90;;;;;;5095799;28;20184;-70
2022/07/13 02:41:21;;;;;;;6.65;4.43;;;18.20;99.90;;;;;;5096194;28;20538;-70
2022/07/13 02:43:47;;;;;;;6.93;4.10;;;18.20;99.90;;;;;;5095948;28;20177;-70
2022/07/13 02:46:12;;;;;;;8.20;4.35;;;18.20;99.90;;;;;;5095717;28;20230;-70
2022/07/13 02:48:38;;;;;;;6.03;3.95;;;18.20;99.90;;;;;;5095709;28;20197;-70
2022/07/13 02:51:04;;;;;;;6.80;4.57;;;18.10;99.90;;;;;;5095324;28;20642;-70
2022/07/13 02:53:30;;;;;;;8.80;4.40;;;18.10;99.90;;;;;;5095596;28;20169;-71
2022/07/13 02:55:56;;;;;;;6.28;4.65;;;18.10;99.90;;;;;;5095496;28;20248;-70
2022/07/13 02:58:22;;;;;;;5.68;5.07;;;18.10;99.90;;;;;;5095546;28;20230;-70
2022/07/13 03:00:47;;;;;;;6.25;4.65;;;18.10;99.90;;;;;;5095371;28;20239;-70
2022/07/13 03:03:13;;;;;;;6.10;4.50;;;18.10;99.90;;;;;;5095392;28;20181;-70
2022/07/13 03:05:39;;;;;;;5.22;4.57;;;18.10;99.90;;;;;;5095104;28;20585;-70
2022/07/13 03:08:04;;;;;;;6.68;5.20;;;18.10;99.90;;;;;;5095749;28;20177;-70
2022/07/13 03:10:31;;;;;;;6.38;5.03;;;18.10;99.90;;;;;;5095247;28;20339;-70
2022/07/13 03:12:57;;;;;;;7.70;5.88;;;18.20;99.90;;;;;;5095291;28;20158;-70
2022/07/13 03:15:22;;;;;;;6.32;5.40;;;18.10;99.90;;;;;;5095704;28;20176;-70
2022/07/13 03:17:48;;;;;;;9.82;5.35;;;18.10;99.90;;;;;;5094975;28;20185;-70
2022/07/13 03:20:14;;;;;;;6.72;5.40;;;18.10;99.90;;;;;;5094966;28;20208;-70
2022/07/13 03:22:40;;;;;;;5.85;4.80;;;18.10;99.90;;;;;;5094938;28;20177;-70
2022/07/13 03:25:06;;;;;;;6.43;5.03;;;18.10;99.90;;;;;;5095230;28;20176;-70
2022/07/13 03:27:32;;;;;;;7.25;5.25;;;18.10;99.90;;;;;;5094705;28;20175;-70
2022/07/13 03:29:58;;;;;;;6.25;5.00;;;18.10;99.90;;;;;;5093341;28;20235;-71
2022/07/13 03:32:24;;;;;;;8.95;5.45;;;18.10;99.90;;;;;;5094971;28;20169;-70
2022/07/13 03:34:49;;;;;;;6.95;5.30;;;18.10;99.90;;;;;;5095402;28;20158;-70
2022/07/13 03:37:15;;;;;;;7.57;5.40;;;18.10;99.90;;;;;;5094617;28;20169;-70
2022/07/13 03:39:41;;;;;;;7.82;5.78;;;18.10;99.90;;;;;;5094978;28;20209;-70
2022/07/13 03:42:07;;;;;;;8.23;5.32;;;18.10;99.90;;;;;;5093544;28;20180;-70
2022/07/13 03:44:32;;;;;;;7.88;5.90;;;18.10;99.90;;;;;;5095314;28;20630;-70
2022/07/13 03:46:58;;;;;;;8.25;5.15;;;18.10;99.90;;;;;;5093547;28;20180;-70
2022/07/13 03:49:24;;;;;;;7.72;5.47;;;18.10;99.90;;;;;;5093110;28;20700;-70
2022/07/13 03:51:50;;;;;;;9.35;4.90;;;18.20;99.90;;;;;;5094383;28;20169;-70
2022/07/13 03:54:16;;;;;;;9.93;5.38;;;18.20;99.90;;;;;;5094480;28;20173;-70
2022/07/13 03:56:42;;;;;;;9.32;5.28;;;18.20;99.90;;;;;;5094615;28;20161;-70
2022/07/13 03:59:08;;;;;;;7.40;5.28;;;18.20;99.90;;;;;;5094845;28;20261;-70
2022/07/13 04:01:34;;;;;;;6.22;5.50;;;18.10;99.90;;;;;;5094730;28;20252;-70
2022/07/13 04:04:00;;;;;;;6.57;5.40;;;18.10;99.90;;;;;;5094348;28;20204;-70
2022/07/13 04:06:26;;;;;;;6.00;5.10;;;18.00;99.90;;;;;;5093056;28;20544;-70
2022/07/13 04:08:51;;;;;;;8.15;5.18;;;18.00;99.90;;;;;;5094217;28;20201;-70
2022/07/13 04:11:17;;;;;;;7.68;5.53;;;18.00;99.90;;;;;;5094315;28;20169;-70
2022/07/13 04:13:44;;;;;;;6.32;5.45;;;18.00;99.90;;;;;;5094569;28;20535;-70
2022/07/13 04:16:10;;;;;;;7.00;5.18;;;18.00;99.90;;;;;;5094493;28;20247;-70
2022/07/13 04:18:36;;;;;;;6.57;4.95;;;18.00;99.90;;;;;;5094128;28;20220;-70
2022/07/13 04:21:01;;;;;;;6.75;5.35;;;18.10;99.90;;;;;;5092693;28;20249;-70
2022/07/13 04:23:31;;;;;;;6.55;5.13;;;18.10;99.90;;;;;;5092929;28;20173;-70
2022/07/13 04:25:57;;;;;;;5.80;4.95;;;18.20;99.90;;;;;;5092855;28;20657;-70
2022/07/13 04:28:23;;;;;;;7.80;5.30;;;18.20;99.90;;;;;;5092965;28;20209;-70
2022/07/13 04:30:50;;;;;;;5.90;5.10;;;18.20;99.90;;;;;;5093019;28;20604;-70
2022/07/13 04:33:16;;;;;;;6.03;5.25;;;18.20;99.90;;;;;;5093305;28;20626;-70
2022/07/13 04:35:42;;;;;;;8.50;5.40;;;18.20;99.90;;;;;;5094391;28;20177;-70
2022/07/13 04:38:07;;;;;;;8.55;5.13;;;18.20;99.90;;;;;;5095656;28;20177;-70
2022/07/13 04:40:33;;;;;;;8.13;5.30;;;18.20;99.90;;;;;;5094501;28;20200;-70
2022/07/13 04:42:59;;;;;;;6.82;5.25;;;18.20;99.90;;;;;;5094126;28;20177;-71
2022/07/13 04:45:25;;;;;;;7.90;4.95;;;18.20;99.90;;;;;;5094308;28;20173;-70
2022/07/13 04:47:50;;;;;;;5.72;5.07;;;18.20;99.90;;;;;;5093897;28;20226;-70
2022/07/13 04:50:16;;;;;;;7.30;5.43;;;18.30;99.90;;;;;;5093589;28;20697;-70
2022/07/13 04:52:42;;;;;;;6.63;5.32;;;18.30;99.90;;;;;;5093556;28;20173;-70
2022/07/13 04:55:09;;;;;;;8.88;5.03;;;18.30;99.90;;;;;;5093814;28;20200;-70
2022/07/13 04:57:36;;;;;;;6.80;5.32;;;18.30;99.90;;;;;;5093864;28;20165;-70
2022/07/13 05:00:04;;;;;;;7.30;5.18;;;18.30;99.90;;;;;;5093766;28;20284;-70
2022/07/13 05:02:30;;;;;;;6.68;4.75;;;18.40;99.90;;;;;;5093559;28;20310;-70
2022/07/13 05:04:55;;;;;;;4.90;4.40;;;18.40;99.90;;;;;;5092399;28;20268;-70
2022/07/13 05:07:21;;;;;;;5.32;4.28;;;18.40;99.90;;;;;;5093325;28;20177;-70
2022/07/13 05:09:47;;;;;;;6.45;4.97;;;18.50;99.90;;;;;;5093669;28;20220;-70
2022/07/13 05:12:12;;;;;;;7.00;4.90;;;18.50;99.90;;;;;;5093332;28;20176;-70
2022/07/13 05:14:38;;;;;;;6.32;4.93;;;18.60;99.90;;;;;;5092228;28;20184;-68
2022/07/13 05:17:04;;;;;;;8.15;5.15;;;18.60;99.90;;;;;;5093086;28;20534;-68
2022/07/13 05:19:30;;;;;;;6.90;5.00;;;18.70;99.90;;;;;;5093438;28;20228;-69
2022/07/13 05:21:55;;;;;;;6.80;4.93;;;18.80;99.90;;;;;;5092967;28;20200;-68
2022/07/13 05:24:21;;;;;;;6.40;4.78;;;18.90;99.90;;;;;;5093162;28;20181;-68
2022/07/13 05:26:47;;;;;;;7.32;4.78;;;18.90;99.90;;;;;;5093130;28;20256;-68
2022/07/13 05:29:13;;;;;;;9.25;4.40;;;18.90;99.90;;;;;;5093235;28;20231;-68
2022/07/13 05:31:38;;;;;;;7.43;4.45;;;19.00;99.90;;;;;;5093115;28;20252;-68
2022/07/13 05:34:04;;;;;;;7.60;5.00;;;19.10;99.90;;;;;;5093116;28;20641;-68
2022/07/13 05:36:30;;;;;;;7.35;4.90;;;19.20;99.90;;;;;;5093180;28;20168;-67
2022/07/13 05:38:55;;;;;;;10.73;5.85;;;19.20;99.90;;;;;;5092962;28;20169;-68
2022/07/13 05:41:21;;;;;;;8.57;4.97;;;19.30;99.90;;;;;;5093186;28;20538;-68
2022/07/13 05:43:47;;;;;;;6.22;4.95;;;19.30;99.90;;;;;;5093055;28;20177;-68
2022/07/13 05:46:13;;;;;;;6.97;4.57;;;19.30;99.90;;;;;;5092922;28;20169;-67
2022/07/13 05:48:38;;;;;;;9.25;4.68;;;19.30;99.90;;;;;;5092801;28;20612;-68
2022/07/13 05:51:04;;;;;;;7.35;4.80;;;19.30;99.90;;;;;;5093077;28;20557;-67
2022/07/13 05:53:30;;;;;;;6.35;4.70;;;19.30;99.90;;;;;;5096858;28;20534;-68
2022/07/13 05:55:56;;;;;;;6.00;4.50;;;19.40;99.90;;;;;;5095380;28;20176;-68
2022/07/13 05:58:22;;;;;;;7.95;4.50;;;19.40;99.90;;;;;;5097010;28;20649;-68
2022/07/13 06:00:48;;;;;;;8.65;5.13;;;19.50;99.90;;;;;;5096427;28;20191;-68
2022/07/13 06:03:13;;;;;;;6.05;4.00;;;19.50;99.90;;;;;;5096437;28;20169;-68
2022/07/13 06:05:39;;;;;;;5.40;4.30;;;19.60;99.90;;;;;;5096384;28;20169;-68
2022/07/13 06:08:05;;;;;;;5.85;4.30;;;19.70;99.90;;;;;;5094814;28;20226;-68
2022/07/13 06:10:31;;;;;;;9.52;4.90;;;19.70;99.90;;;;;;5096202;28;20264;-68
2022/07/13 06:12:57;;;;;;;7.03;5.18;;;19.80;99.90;;;;;;5096358;28;20169;-68
2022/07/13 06:15:22;;;;;;;5.43;3.88;;;19.80;99.90;;;;;;5096807;28;20248;-68
2022/07/13 06:17:48;;;;;;;8.38;4.60;;;19.90;99.90;;;;;;5096033;28;20189;-68
2022/07/13 06:20:14;;;;;;;6.88;4.88;;;20.00;99.90;;;;;;5096298;28;20215;-68
2022/07/13 06:22:40;;;;;;;5.38;4.05;;;20.10;99.90;;;;;;5096061;28;20545;-68
2022/07/13 06:25:06;;;;;;;5.95;3.75;;;20.20;99.90;;;;;;5096640;28;20169;-68
2022/07/13 06:27:32;;;;;;;7.05;4.88;;;20.30;99.90;;;;;;5096822;28;20181;-68
2022/07/13 06:29:58;;;;;;;7.30;4.40;;;20.30;99.90;;;;;;5095913;28;20208;-68
2022/07/13 06:32:23;;;;;;;9.57;4.47;;;20.30;99.90;;;;;;5095821;28;20629;-68
2022/07/13 06:34:49;;;;;;;7.20;4.57;;;20.30;99.90;;;;;;5095902;28;20174;-68
2022/07/13 06:37:15;;;;;;;9.23;4.35;;;20.40;99.90;;;;;;5095562;28;20216;-68
2022/07/13 06:39:41;;;;;;;4.72;4.22;;;20.50;99.90;;;;;;5095773;28;20746;-68
2022/07/13 06:42:09;;;;;;;5.72;3.55;;;20.60;99.90;;;;;;5095706;28;20656;-68
2022/07/13 06:44:34;;;;;;;5.68;3.90;;;20.60;99.90;;;;;;5094432;28;20177;-68
2022/07/13 06:47:00;;;;;;;5.88;4.40;;;20.80;99.90;;;;;;5095561;28;20264;-68
2022/07/13 06:49:29;;;;;;;7.10;4.03;;;20.90;99.90;;;;;;5095401;28;20201;-68
2022/07/13 06:51:55;;;;;;;7.18;4.07;;;21.00;99.90;;;;;;5095595;28;20598;-68
2022/07/13 06:54:21;;;;;;;10.10;4.18;;;21.00;99.90;;;;;;5095518;28;20673;-68
2022/07/13 06:56:47;;;;;;;5.78;3.95;;;21.10;99.90;;;;;;5094144;28;20174;-68
2022/07/13 06:59:12;;;;;;;5.65;3.90;;;21.10;99.90;;;;;;5094088;28;20224;-69
2022/07/13 07:01:38;;;;;;;4.35;3.95;;;21.10;99.90;;;;;;5095318;28;20618;-70
2022/07/13 07:04:04;;;;;;;5.53;4.38;;;21.20;99.90;;;;;;5094855;28;20173;-70
2022/07/13 07:06:30;;;;;;;5.93;3.97;;;21.40;99.90;;;;;;5094895;28;20177;-70
2022/07/13 07:08:58;;;;;;;7.00;3.97;;;21.70;99.90;;;;;;5095388;28;20232;-70
2022/07/13 07:11:24;;;;;;;4.55;3.78;;;21.90;99.90;;;;;;5095508;28;20170;-70
2022/07/13 07:13:50;;;;;;;6.78;3.30;;;22.10;99.90;;;;;;5093890;28;20180;-70
2022/07/13 07:16:16;;;;;;;5.03;3.53;;;22.20;99.90;;;;;;5095072;28;20162;-70
2022/07/13 07:18:41;;;;;;;6.28;3.45;;;22.30;99.90;;;;;;5093651;28;20215;-70
2022/07/13 07:21:07;;;;;;;8.02;3.42;;;22.50;99.90;;;;;;5095555;28;20642;-70
2022/07/13 07:23:33;;;;;;;3.95;3.55;;;22.60;99.90;;;;;;5095405;28;20169;-70
2022/07/13 07:25:59;;;;;;;4.60;3.03;;;22.70;99.90;;;;;;5095051;28;20173;-70
2022/07/13 07:28:24;;;;;;;5.40;3.17;;;22.80;99.90;;;;;;5094800;28;20544;-69
2022/07/13 07:30:51;;;;;;;4.15;2.90;;;22.90;99.90;;;;;;5095069;28;20197;-70
2022/07/13 07:33:17;;;;;;;7.80;2.88;;;23.00;99.90;;;;;;5095266;28;20165;-69
2022/07/13 07:35:43;;;;;;;6.90;3.33;;;23.00;99.90;;;;;;5094656;28;20264;-70
2022/07/13 07:38:09;;;;;;;4.60;2.60;;;23.10;99.90;;;;;;5094182;28;20177;-69
2022/07/13 07:40:35;;;;;;;3.40;2.92;;;23.20;99.90;;;;;;5094555;28;20700;-70
2022/07/13 07:43:00;;;;;;;8.60;2.95;;;23.40;99.90;;;;;;5094533;28;20173;-70
2022/07/13 07:45:26;;;;;;;3.22;2.58;;;23.60;99.90;;;;;;5093293;28;20177;-70
2022/07/13 07:47:52;;;;;;;4.03;2.67;;;23.70;99.90;;;;;;5094501;28;20256;-70
2022/07/13 07:50:18;;;;;;;8.60;2.70;;;23.90;99.90;;;;;;5092975;28;20240;-70
2022/07/13 07:52:43;;;;;;;5.82;2.70;;;24.00;99.90;;;;;;5095195;28;20203;-70
2022/07/13 07:55:09;;;;;;;4.22;2.55;;;24.20;99.90;;;;;;5093417;28;20184;-70
2022/07/13 07:57:48;;;;;;;4.30;2.53;;;24.30;99.90;;;;;;5094688;28;20174;-70
2022/07/13 08:00:14;;;;;;;2.70;2.38;;;24.40;99.90;;;;;;5094399;28;20213;-69
2022/07/13 08:02:43;;;;;;;5.15;2.50;;;24.60;99.90;;;;;;5094457;28;20233;-70
2022/07/13 08:05:09;;;;;;;4.63;3.00;;;24.60;99.90;;;;;;5094728;28;20640;-70
2022/07/13 08:07:40;;;;;;;3.38;2.80;;;24.70;99.90;;;;;;5094048;28;20299;-70
2022/07/13 08:10:06;;;;;;;2.63;2.40;;;24.80;99.90;;;;;;5094342;28;20212;-70
2022/07/13 08:12:33;;;;;;;2.78;2.50;;;24.90;99.90;;;;;;5094125;28;20652;-70
2022/07/13 08:14:58;;;;;;;4.20;2.85;;;25.10;99.90;;;;;;5091967;28;20181;-69
2022/07/13 08:17:24;;;;;;;3.38;2.47;;;25.30;99.90;;;;;;5092721;28;20555;-69
2022/07/13 08:19:50;;;;;;;3.13;2.63;;;25.40;99.90;;;;;;5106785;28;20212;-69
2022/07/13 08:22:16;;;;;;;3.83;2.70;;;25.50;99.90;;;;;;5114300;28;20180;-70
2022/07/13 08:24:42;;;;;;;4.85;2.38;;;25.60;99.90;;;;;;5114461;28;20200;-69
2022/07/13 08:27:08;;;;;;;3.38;2.20;;;25.70;99.90;;;;;;5114222;28;20180;-69
2022/07/13 08:29:34;;;;;;;3.60;2.35;;;25.80;99.90;;;;;;5114677;28;20203;-69
2022/07/13 08:32:00;;;;;;;2.50;2.20;;;25.90;99.90;;;;;;5114181;28;20169;-69
2022/07/13 08:39:54;;;;;;;2.47;2.10;;;26.40;99.90;;;;;;5114181;28;20679;-69
2022/07/13 08:42:20;;;;;;;4.18;2.50;;;26.50;99.90;;;;;;5114048;28;20176;-69
2022/07/13 08:44:46;;;;;;;3.40;2.47;;;26.70;99.90;;;;;;5113938;28;20641;-69
2022/07/13 08:47:12;;;;;;;3.72;2.55;;;26.60;99.90;;;;;;5114110;28;20544;-69
2022/07/13 08:49:38;;;;;;;5.57;2.72;;;26.70;99.90;;;;;;5102738;28;20262;-69
2022/07/13 08:52:04;;;;;;;5.53;2.10;;;26.70;99.90;;;;;;5093538;28;20184;-69
2022/07/13 08:54:31;;;;;;;2.90;2.10;;;26.80;99.90;;;;;;5093526;28;20165;-69
2022/07/13 08:56:57;;;;;;;3.92;1.85;;;26.70;99.90;;;;;;5093503;28;20241;-69
2022/07/13 08:59:23;;;;;;;3.90;2.20;;;26.80;99.90;;;;;;5093410;28;20322;-69
2022/07/13 09:01:49;;;;;;;7.88;2.65;;;26.80;99.90;;;;;;5093483;28;20710;-69
2022/07/13 09:04:15;;;;;;;4.13;2.47;;;26.80;99.90;;;;;;5093439;28;20181;-69
2022/07/13 09:06:48;;;;;;;5.75;2.55;;;26.80;99.90;;;;;;5091521;28;20210;-69
2022/07/13 09:09:35;;;;;;;2.97;2.55;;;26.80;99.90;;;;;;5093251;28;20254;-69
2022/07/13 09:12:17;;;;;;;5.50;2.72;;;26.80;99.90;;;;;;5093254;28;20173;-69
2022/07/13 09:15:06;;;;;;;4.13;2.42;;;26.80;99.90;;;;;;5093637;28;20171;-69
2022/07/13 09:17:44;;;;;;;3.85;2.20;;;26.90;99.90;;;;;;5093358;28;20557;-69
2022/07/13 09:20:10;;;;;;;8.75;2.67;;;26.90;99.90;;;;;;5091778;28;20251;-69
2022/07/13 09:22:56;;;;;;;4.65;2.47;;;27.00;99.90;;;;;;5092916;28;20664;-70
2022/07/13 09:25:34;;;;;;;4.28;2.50;;;27.10;99.90;;;;;;5093516;28;20178;-70
2022/07/13 09:28:07;;;;;;;4.25;2.33;;;27.40;99.90;;;;;;5096881;28;20271;-69
2022/07/13 09:30:34;;;;;;;3.55;2.60;;;27.60;99.90;;;;;;5097449;28;20278;-69
2022/07/13 09:33:00;;;;;;;7.25;2.85;;;27.80;99.90;;;;;;5097129;28;20169;-69
2022/07/13 09:35:44;;;;;;;2.47;2.28;;;27.80;99.90;;;;;;5097250;28;20165;-70
2022/07/13 09:38:34;;;;;;;6.00;2.45;;;27.80;99.90;;;;;;5096712;28;20173;-70
2022/07/13 09:41:16;;;;;;;4.25;2.30;;;27.70;99.90;;;;;;5097013;28;20242;-70
2022/07/13 09:46:54;;;;;;;4.65;2.40;;;27.50;99.90;;;;;;5096886;28;20214;-70
2022/07/13 09:49:37;;;;;;;3.58;2.33;;;27.60;99.90;;;;;;5096511;28;20231;-70
2022/07/13 09:52:05;;;;;;;4.18;2.53;;;27.70;99.90;;;;;;5096622;28;20251;-70
2022/07/13 09:54:33;;;;;;;7.95;2.45;;;27.80;99.90;;;;;;5096609;28;20172;-69
2022/07/13 09:57:02;;;;;;;7.15;2.78;;;27.70;99.90;;;;;;5096574;28;20220;-69
2022/07/13 09:59:29;;;;;;;3.25;2.40;;;27.80;99.90;;;;;;5096745;28;20189;-69
2022/07/13 10:01:55;;;;;;;5.60;2.28;;;27.80;99.90;;;;;;5096511;28;20169;-70
2022/07/13 10:04:22;;;;;;;4.10;2.35;;;27.90;99.90;;;;;;5096771;28;20173;-70
2022/07/13 10:06:49;;;;;;;3.70;2.15;;;28.20;99.90;;;;;;5096400;28;20181;-70
2022/07/13 10:09:31;;;;;;;6.82;2.63;;;28.40;99.90;;;;;;5096486;28;20197;-69
2022/07/13 10:11:58;;;;;;;4.55;2.42;;;28.40;99.90;;;;;;5096364;28;20194;-70
2022/07/13 10:14:27;;;;;;;3.33;2.28;;;28.30;99.90;;;;;;5096545;28;20214;-72
2022/07/13 10:16:59;;;;;;;4.18;2.42;;;28.30;99.90;;;;;;5094975;28;20197;-70
2022/07/13 10:19:25;;;;;;;3.05;2.38;;;28.40;99.90;;;;;;5096278;28;20212;-70
2022/07/13 10:22:17;;;;;;;6.45;2.70;;;28.50;99.90;;;;;;5095862;28;20173;-70
2022/07/13 10:24:57;;;;;;;6.05;2.70;;;28.40;99.90;;;;;;5096755;28;20161;-70
2022/07/13 10:27:27;;;;;;;4.75;2.42;;;28.30;99.90;;;;;;5096221;28;20283;-70
2022/07/13 10:29:56;;;;;;;5.45;2.55;;;28.30;99.90;;;;;;5096037;28;20204;-70
2022/07/13 10:32:27;;;;;;;7.45;2.58;;;28.30;99.90;;;;;;5096217;28;20192;-69
2022/07/13 10:35:25;;;;;;;7.68;2.72;;;28.30;99.90;;;;;;5096059;28;20169;-70
2022/07/13 10:37:56;;;;;;;5.57;2.50;;;28.30;99.90;;;;;;5071490;28;20234;-70
2022/07/13 10:40:28;;;;;;;7.75;2.80;;;28.40;99.90;;;;;;5095764;28;20220;-70
2022/07/13 10:42:57;;;;;;;8.27;3.22;;;28.70;99.90;;;;;;5094736;28;20177;-70
2022/07/13 10:45:34;;;;;;;2.97;2.38;;;28.80;99.90;;;;;;5095733;28;20226;-70
2022/07/13 10:48:31;;;;;;;4.25;2.72;;;28.80;99.90;;;;;;5096111;28;20509;-70
2022/07/13 10:50:59;;;;;;;5.93;2.30;;;28.80;99.90;;;;;;5094385;28;20205;-70
2022/07/13 10:53:45;;;;;;;3.65;2.60;;;28.60;99.90;;;;;;5095359;28;20169;-70
2022/07/13 10:56:19;;;;;;;3.58;2.40;;;28.60;99.90;;;;;;5095972;28;20162;-70
2022/07/13 10:58:46;;;;;;;4.22;2.22;;;28.70;99.90;;;;;;5095539;28;20250;-70
2022/07/13 11:01:32;;;;;;;4.70;2.60;;;28.60;99.90;;;;;;5095343;28;20193;-69
2022/07/13 11:03:59;;;;;;;10.20;2.33;;;28.40;99.90;;;;;;5095440;28;20180;-69
2022/07/13 11:06:25;;;;;;;4.70;2.20;;;28.30;99.90;;;;;;5095272;28;20173;-70
2022/07/13 11:09:11;;;;;;;4.38;2.30;;;28.40;99.90;;;;;;5093676;28;20205;-69
2022/07/13 11:12:18;;;;;;;5.53;2.63;;;28.50;99.90;;;;;;5096004;28;20517;-70
2022/07/13 11:14:48;;;;;;;4.10;2.00;;;28.70;99.90;;;;;;5095450;28;20177;-69
2022/07/13 11:17:18;;;;;;;3.95;2.08;;;29.00;99.90;;;;;;5094812;28;20555;-70
2022/07/13 11:20:07;;;;;;;2.53;2.03;;;29.10;99.90;;;;;;5107968;28;20223;-70
2022/07/13 11:25:29;;;;;;;2.08;1.88;;;29.30;99.90;;;;;;5116256;28;20164;-70
2022/07/13 11:28:17;;;;;;;2.42;1.88;;;29.30;99.90;;;;;;5114064;28;20172;-69
2022/07/13 11:30:49;;;;;;;2.67;1.75;;;29.10;99.90;;;;;;5115273;28;20200;-69
2022/07/13 11:33:16;;;;;;;4.13;2.05;;;29.00;99.90;;;;;;5113878;28;20213;-69
2022/07/13 11:35:46;;;;;;;4.90;2.15;;;28.70;99.90;;;;;;5115748;28;20192;-69
2022/07/13 11:38:16;;;;;;;3.97;2.40;;;28.60;99.90;;;;;;5115427;28;20180;-70
2022/07/13 11:40:43;;;;;;;5.10;2.30;;;28.60;99.90;;;;;;5113805;28;20224;-69
2022/07/13 11:43:10;;;;;;;3.10;1.77;;;28.50;99.90;;;;;;5115074;28;20178;-72
2022/07/13 11:45:39;;;;;;;4.18;2.22;;;28.40;99.90;;;;;;5115263;28;20585;-73
2022/07/13 11:48:09;;;;;;;3.90;2.42;;;28.30;99.90;;;;;;5113809;28;20200;-72
2022/07/13 11:50:53;;;;;;;6.97;2.30;;;28.30;99.90;;;;;;5114770;28;20287;-71
2022/07/13 11:53:24;;;;;;;4.25;2.15;;;28.30;99.90;;;;;;5114581;28;20157;-70
2022/07/13 11:55:50;;;;;;;4.93;1.95;;;28.20;99.90;;;;;;5115000;28;20153;-69
2022/07/13 11:58:27;;;;;;;2.67;2.10;;;28.10;99.90;;;;;;5115191;28;20508;-71
2022/07/13 12:00:54;;;;;;;4.78;1.75;;;28.10;99.90;;;;;;5114540;28;20671;-70
2022/07/13 12:03:32;;;;;;;2.95;2.10;;;28.20;99.90;;;;;;5114851;28;20196;-70
2022/07/13 12:05:59;;;;;;;5.22;1.90;;;28.20;99.90;;;;;;5113440;28;20164;-70
2022/07/13 12:08:25;;;;;;;8.30;2.40;;;28.20;99.90;;;;;;5114153;28;20573;-70
2022/07/13 12:10:51;;;;;;;6.72;2.30;;;28.10;99.90;;;;;;5114433;28;20184;-70
2022/07/13 12:13:18;;;;;;;2.72;2.10;;;28.20;99.90;;;;;;5114482;28;20176;-70
2022/07/13 12:15:46;;;;;;;2.40;2.05;;;28.30;99.90;;;;;;5113070;28;20180;-70
2022/07/13 12:18:14;;;;;;;3.70;1.75;;;28.40;99.90;;;;;;5114431;28;20665;-70
2022/07/13 12:20:40;;;;;;;2.20;1.70;;;28.60;99.90;;;;;;5114199;28;20200;-71
2022/07/13 12:23:08;;;;;;;5.55;2.25;;;28.60;99.90;;;;;;5114185;28;20255;-70
2022/07/13 12:25:41;;;;;;;5.80;2.08;;;28.90;99.90;;;;;;5112948;28;20219;-70
2022/07/13 12:28:09;;;;;;;4.78;2.10;;;29.50;99.90;;;;;;5114227;28;20180;-70
2022/07/13 12:30:39;;;;;;;4.68;2.80;;;29.80;99.90;;;;;;5113994;28;20204;-70
2022/07/13 12:33:12;;;;;;;6.53;2.45;;;29.80;99.90;;;;;;5114474;28;20312;-70
2022/07/13 12:35:40;;;;;;;3.28;2.38;;;29.50;99.90;;;;;;5114417;28;20145;-70
2022/07/13 12:38:11;;;;;;;4.18;2.10;;;29.50;99.90;;;;;;5114114;28;20256;-69
2022/07/13 12:40:54;;;;;;;3.90;2.20;;;29.30;99.90;;;;;;5114611;28;20192;-69
2022/07/13 12:43:25;;;;;;;3.83;1.83;;;29.30;99.90;;;;;;5113464;28;20174;-69
2022/07/13 12:45:53;;;;;;;4.82;2.30;;;29.30;99.90;;;;;;5114513;28;20204;-70
2022/07/13 12:48:22;;;;;;;4.38;1.73;;;29.40;99.90;;;;;;5112643;28;20609;-71
2022/07/13 12:51:01;;;;;;;2.85;1.85;;;29.50;99.90;;;;;;5113857;28;20235;-70
2022/07/13 12:53:54;;;;;;;4.45;1.58;;;29.40;99.90;;;;;;5112366;28;20173;-70
2022/07/13 12:56:25;;;;;;;4.18;2.17;;;29.20;99.90;;;;;;5114186;28;20157;-70
2022/07/13 12:58:53;;;;;;;4.07;2.10;;;29.10;99.90;;;;;;5112357;28;20657;-70
2022/07/13 13:01:37;;;;;;;2.67;1.70;;;28.90;99.90;;;;;;5114857;28;20548;-70
2022/07/13 13:04:04;;;;;;;5.88;2.22;;;29.00;99.90;;;;;;5118266;28;20293;-70